Time;durP1;ratioP1;P1;durP2;ratioP2;P2;SDS_P1;SDS_P2;PMS_P1;PMS_P2;Temp;Humidity;BMP_temperature;BMP_pressure;BME280_temperature;BME280_humidity;BME280_pressure;Samples;Min_cycle;Max_cycle;Signal;HPM_P1;HPM_P2
2021/10/18 00:00:35;;;;;;;;;2.00;2.00;;;;;;;;2773532;51;8800;-69
2021/10/18 00:03:00;;;;;;;;;5.50;4.00;;;;;;;;2773979;51;8765;-69
2021/10/18 00:05:26;;;;;;;;;3.00;2.00;;;;;;;;2773733;51;8911;-71
2021/10/18 00:07:51;;;;;;;;;6.75;4.25;;;;;;;;2773632;51;8810;-68
2021/10/18 00:10:17;;;;;;;;;3.75;3.75;;;;;;;;2773468;51;8781;-70
2021/10/18 00:12:43;;;;;;;;;3.00;3.00;;;;;;;;2773704;51;8813;-70
2021/10/18 00:15:10;;;;;;;;;3.80;3.80;;;;;;;;2775608;51;8762;-69
2021/10/18 00:17:36;;;;;;;;;3.40;3.00;;;;;;;;2774745;51;8766;-69
2021/10/18 00:20:04;;;;;;;;;3.40;3.40;;;;;;;;2779654;51;8766;-66
2021/10/18 00:22:29;;;;;;;;;5.60;5.00;;;;;;;;2777006;51;8779;-65
2021/10/18 00:24:55;;;;;;;;;3.25;3.25;;;;;;;;2773474;51;8797;-65
2021/10/18 00:27:20;;;;;;;;;6.00;5.00;;;;;;;;2773369;51;8896;-64
2021/10/18 00:29:46;;;;;;;;;6.50;6.00;;;;;;;;2773447;51;8911;-66
2021/10/18 00:32:12;;;;;;;;;5.00;5.00;;;;;;;;2779219;51;8791;-64
2021/10/18 00:34:37;;;;;;;;;5.00;5.00;;;;;;;;2779312;51;8851;-65
2021/10/18 00:37:03;;;;;;;;;6.00;3.75;;;;;;;;2779501;51;8888;-66
2021/10/18 00:39:28;;;;;;;;;6.00;3.25;;;;;;;;2779392;51;8770;-66
2021/10/18 00:41:54;;;;;;;;;6.00;3.00;;;;;;;;2779615;51;9435;-66
2021/10/18 00:44:20;;;;;;;;;7.50;4.25;;;;;;;;2779467;51;8813;-67
2021/10/18 00:46:45;;;;;;;;;6.00;5.00;;;;;;;;2779661;51;9392;-67
2021/10/18 00:49:11;;;;;;;;;7.00;3.00;;;;;;;;2773562;51;8812;-63
2021/10/18 00:51:36;;;;;;;;;7.25;5.50;;;;;;;;2773317;51;10928;-65
2021/10/18 00:54:03;;;;;;;;;5.50;3.75;;;;;;;;2773274;51;8796;-67
2021/10/18 00:56:29;;;;;;;;;8.00;4.80;;;;;;;;2773480;51;8875;-66
2021/10/18 00:58:55;;;;;;;;;4.00;4.00;;;;;;;;2773414;51;8781;-66
2021/10/18 01:01:21;;;;;;;;;12.20;6.00;;;;;;;;2773387;51;8757;-66
2021/10/18 01:03:47;;;;;;;;;3.75;3.75;;;;;;;;2772912;51;8837;-64
2021/10/18 01:06:12;;;;;;;;;3.50;3.50;;;;;;;;2773368;51;11448;-65
2021/10/18 01:08:38;;;;;;;;;2.75;2.00;;;;;;;;2773288;51;8911;-65
2021/10/18 01:11:05;;;;;;;;;4.50;4.00;;;;;;;;2773385;51;8792;-65
2021/10/18 01:13:31;;;;;;;;;6.00;4.40;;;;;;;;2773528;51;8896;-63
2021/10/18 01:15:57;;;;;;;;;5.25;3.25;;;;;;;;2773347;51;8773;-64
2021/10/18 01:18:23;;;;;;;;;7.40;4.00;;;;;;;;2773323;51;8866;-65
2021/10/18 01:20:49;;;;;;;;;3.20;2.00;;;;;;;;2773325;51;8792;-65
2021/10/18 01:23:14;;;;;;;;;3.25;2.25;;;;;;;;2778638;51;8892;-66
2021/10/18 01:25:40;;;;;;;;;3.00;2.25;;;;;;;;2779164;51;9474;-66
2021/10/18 01:28:06;;;;;;;;;5.50;1.75;;;;;;;;2779267;51;8759;-65
2021/10/18 01:30:32;;;;;;;;;1.80;1.80;;;;;;;;2779171;51;8783;-64
2021/10/18 01:32:58;;;;;;;;;7.00;4.00;;;;;;;;2779266;51;8763;-65
2021/10/18 01:35:24;;;;;;;;;3.00;3.00;;;;;;;;2779623;51;8763;-65
2021/10/18 01:37:50;;;;;;;;;5.60;2.00;;;;;;;;2778167;51;9394;-65
2021/10/18 01:40:16;;;;;;;;;2.60;2.60;;;;;;;;2773134;51;8792;-64
2021/10/18 01:42:43;;;;;;;;;2.60;2.60;;;;;;;;2773068;51;8938;-63
2021/10/18 01:45:09;;;;;;;;;6.00;4.00;;;;;;;;2773461;51;8868;-64
2021/10/18 01:47:35;;;;;;;;;3.60;3.20;;;;;;;;2773518;51;8859;-63
2021/10/18 01:50:06;;;;;;;;;3.00;2.00;;;;;;;;2772526;51;8773;-63
2021/10/18 01:52:32;;;;;;;;;3.80;2.60;;;;;;;;2773249;51;8875;-64
2021/10/18 01:54:57;;;;;;;;;6.00;4.00;;;;;;;;2773090;51;8781;-62
2021/10/18 01:57:23;;;;;;;;;2.75;2.75;;;;;;;;2773189;51;8809;-63
2021/10/18 01:59:48;;;;;;;;;3.50;3.25;;;;;;;;2773313;51;8866;-63
2021/10/18 02:02:14;;;;;;;;;3.50;3.00;;;;;;;;2771801;51;8892;-63
2021/10/18 02:04:39;;;;;;;;;3.25;3.25;;;;;;;;2775753;51;8888;-64
2021/10/18 02:07:05;;;;;;;;;11.50;2.75;;;;;;;;2775184;51;8802;-63
2021/10/18 02:09:30;;;;;;;;;3.25;3.25;;;;;;;;2773504;51;8757;-63
2021/10/18 02:11:56;;;;;;;;;3.75;2.75;;;;;;;;2775824;51;8770;-63
2021/10/18 02:14:22;;;;;;;;;7.40;2.40;;;;;;;;2773459;51;8804;-63
2021/10/18 02:16:48;;;;;;;;;7.25;6.25;;;;;;;;2772982;51;8792;-63
2021/10/18 02:19:13;;;;;;;;;7.25;4.00;;;;;;;;2773350;51;8785;-65
2021/10/18 02:21:39;;;;;;;;;4.00;3.25;;;;;;;;2778928;51;8771;-65
2021/10/18 02:24:04;;;;;;;;;6.25;6.25;;;;;;;;2778965;51;8839;-65
2021/10/18 02:26:30;;;;;;;;;2.75;2.75;;;;;;;;2773825;51;8884;-64
2021/10/18 02:28:56;;;;;;;;;3.00;2.00;;;;;;;;2772839;51;8787;-64
2021/10/18 02:31:21;;;;;;;;;4.50;3.00;;;;;;;;2772808;51;8958;-65
2021/10/18 02:33:47;;;;;;;;;6.50;4.50;;;;;;;;2772980;51;8773;-65
2021/10/18 02:36:12;;;;;;;;;7.00;7.00;;;;;;;;2773247;51;9462;-65
2021/10/18 02:38:39;;;;;;;;;4.00;3.00;;;;;;;;2779044;51;8872;-65
2021/10/18 02:41:05;;;;;;;;;3.80;3.00;;;;;;;;2779915;51;8758;-65
2021/10/18 02:43:31;;;;;;;;;5.60;3.60;;;;;;;;2774871;51;8753;-64
2021/10/18 02:45:57;;;;;;;;;6.00;3.50;;;;;;;;2774090;51;8773;-65
2021/10/18 02:48:22;;;;;;;;;4.25;2.00;;;;;;;;2773745;51;8773;-65
2021/10/18 02:50:48;;;;;;;;;7.00;4.00;;;;;;;;2773932;51;8769;-65
2021/10/18 02:53:14;;;;;;;;;4.00;4.00;;;;;;;;2773879;51;9589;-65
2021/10/18 02:55:39;;;;;;;;;5.75;4.00;;;;;;;;2773837;51;9390;-65
2021/10/18 02:58:05;;;;;;;;;2.75;2.75;;;;;;;;2773854;51;8900;-66
2021/10/18 03:00:31;;;;;;;;;6.50;3.50;;;;;;;;2774133;51;8866;-66
2021/10/18 03:02:56;;;;;;;;;3.75;2.50;;;;;;;;2773722;51;8788;-66
2021/10/18 03:05:22;;;;;;;;;6.25;5.00;;;;;;;;2773873;51;8887;-65
2021/10/18 03:07:51;;;;;;;;;4.00;4.00;;;;;;;;2774036;51;8891;-64
2021/10/18 03:10:18;;;;;;;;;4.00;4.00;;;;;;;;2774247;51;8796;-65
2021/10/18 03:12:44;;;;;;;;;5.20;3.60;;;;;;;;2779622;51;8912;-65
2021/10/18 03:15:09;;;;;;;;;6.75;6.25;;;;;;;;2779688;51;8775;-64
2021/10/18 03:17:35;;;;;;;;;5.25;3.75;;;;;;;;2775440;51;9457;-65
2021/10/18 03:20:00;;;;;;;;;4.00;4.00;;;;;;;;2773653;51;8781;-65
2021/10/18 03:22:26;;;;;;;;;6.25;3.50;;;;;;;;2773610;51;8820;-66
2021/10/18 03:24:52;;;;;;;;;2.50;2.25;;;;;;;;2773964;51;8804;-65
2021/10/18 03:27:17;;;;;;;;;5.50;3.00;;;;;;;;2773708;51;8773;-64
2021/10/18 03:29:43;;;;;;;;;4.50;4.50;;;;;;;;2773615;51;8877;-65
2021/10/18 03:32:08;;;;;;;;;6.50;4.25;;;;;;;;2773745;51;8973;-66
2021/10/18 03:34:34;;;;;;;;;7.00;2.00;;;;;;;;2773562;51;8773;-65
2021/10/18 03:37:00;;;;;;;;;3.00;2.00;;;;;;;;2773623;51;8801;-64
2021/10/18 03:39:25;;;;;;;;;3.75;2.25;;;;;;;;2773580;51;8789;-65
2021/10/18 03:41:51;;;;;;;;;2.50;2.50;;;;;;;;2773709;51;8797;-64
2021/10/18 03:44:16;;;;;;;;;4.75;2.75;;;;;;;;2773455;51;8911;-64
2021/10/18 03:46:42;;;;;;;;;3.00;3.00;;;;;;;;2773533;51;8875;-66
2021/10/18 03:49:07;;;;;;;;;5.50;5.00;;;;;;;;2773503;51;8907;-63
2021/10/18 03:51:33;;;;;;;;;5.75;3.75;;;;;;;;2773715;51;8808;-64
2021/10/18 03:53:58;;;;;;;;;8.25;4.50;;;;;;;;2773701;51;8800;-64
2021/10/18 03:56:24;;;;;;;;;2.00;2.00;;;;;;;;2773443;51;8880;-65
2021/10/18 03:58:50;;;;;;;;;3.75;3.75;;;;;;;;2773590;51;8785;-65
2021/10/18 04:01:15;;;;;;;;;6.50;5.00;;;;;;;;2773781;51;8789;-65
2021/10/18 04:03:41;;;;;;;;;3.00;2.00;;;;;;;;2773839;51;8777;-65
2021/10/18 04:06:06;;;;;;;;;7.50;7.50;;;;;;;;2773870;51;8773;-66
2021/10/18 04:08:33;;;;;;;;;4.00;4.00;;;;;;;;2773850;51;9486;-66
2021/10/18 04:10:59;;;;;;;;;3.40;3.40;;;;;;;;2775340;51;8787;-66
2021/10/18 04:13:25;;;;;;;;;4.20;2.00;;;;;;;;2779470;51;8941;-66
2021/10/18 04:15:51;;;;;;;;;2.80;2.80;;;;;;;;2778979;51;8770;-68
2021/10/18 04:18:16;;;;;;;;;2.00;2.00;;;;;;;;2773467;51;8846;-67
2021/10/18 04:20:43;;;;;;;;;5.80;5.80;;;;;;;;2773318;51;8777;-66
2021/10/18 04:23:09;;;;;;;;;5.75;3.50;;;;;;;;2773380;51;8861;-66
2021/10/18 04:25:34;;;;;;;;;4.50;4.50;;;;;;;;2773348;51;9560;-67
2021/10/18 04:28:00;;;;;;;;;3.00;3.00;;;;;;;;2773358;51;8774;-66
2021/10/18 04:30:26;;;;;;;;;8.25;7.00;;;;;;;;2773544;51;8820;-66
2021/10/18 04:32:51;;;;;;;;;5.50;5.50;;;;;;;;2773722;51;9431;-67
2021/10/18 04:35:17;;;;;;;;;3.25;3.25;;;;;;;;2773646;51;8846;-67
2021/10/18 04:37:42;;;;;;;;;8.25;4.00;;;;;;;;2773309;51;8899;-66
2021/10/18 04:40:08;;;;;;;;;8.50;3.75;;;;;;;;2773255;51;9484;-66
2021/10/18 04:42:34;;;;;;;;;4.00;3.75;;;;;;;;2773501;51;8761;-66
2021/10/18 04:44:59;;;;;;;;;7.25;6.00;;;;;;;;2773187;51;9458;-66
2021/10/18 04:47:25;;;;;;;;;5.00;4.25;;;;;;;;2773582;51;8777;-66
2021/10/18 04:49:51;;;;;;;;;5.50;3.75;;;;;;;;2773333;51;8840;-66
2021/10/18 04:52:16;;;;;;;;;7.75;6.50;;;;;;;;2773432;51;9350;-67
2021/10/18 04:54:42;;;;;;;;;6.00;5.50;;;;;;;;2773261;51;8804;-66
2021/10/18 04:57:07;;;;;;;;;3.00;1.00;;;;;;;;2773300;51;8809;-67
2021/10/18 04:59:33;;;;;;;;;4.00;4.00;;;;;;;;2773334;51;8823;-68
2021/10/18 05:01:58;;;;;;;;;4.00;4.00;;;;;;;;2772935;51;8785;-66
2021/10/18 05:04:24;;;;;;;;;4.00;3.00;;;;;;;;2773401;51;8797;-67
2021/10/18 05:06:49;;;;;;;;;3.00;3.00;;;;;;;;2773231;51;8899;-66
2021/10/18 05:09:15;;;;;;;;;6.00;5.50;;;;;;;;2773140;51;8781;-66
2021/10/18 05:11:41;;;;;;;;;6.00;3.50;;;;;;;;2776461;51;8930;-66
2021/10/18 05:14:06;;;;;;;;;4.00;3.00;;;;;;;;2779292;51;8790;-67
2021/10/18 05:16:32;;;;;;;;;4.00;2.75;;;;;;;;2777011;51;8762;-67
2021/10/18 05:18:58;;;;;;;;;7.50;7.00;;;;;;;;2772619;51;8807;-66
2021/10/18 05:21:23;;;;;;;;;8.00;7.25;;;;;;;;2773193;51;8777;-67
2021/10/18 05:23:49;;;;;;;;;2.75;2.75;;;;;;;;2772718;51;8852;-67
2021/10/18 05:26:14;;;;;;;;;3.50;2.75;;;;;;;;2773205;51;8774;-68
2021/10/18 05:28:40;;;;;;;;;4.00;4.00;;;;;;;;2773162;51;8858;-66
2021/10/18 05:31:06;;;;;;;;;4.00;3.25;;;;;;;;2772945;51;8765;-68
2021/10/18 05:33:32;;;;;;;;;4.80;4.80;;;;;;;;2772945;51;8775;-67
2021/10/18 05:35:57;;;;;;;;;4.00;2.25;;;;;;;;2773298;51;8757;-67
2021/10/18 05:38:23;;;;;;;;;3.00;3.00;;;;;;;;2773098;51;9418;-67
2021/10/18 05:40:50;;;;;;;;;2.00;2.00;;;;;;;;2773363;51;8765;-69
2021/10/18 05:43:16;;;;;;;;;3.40;3.40;;;;;;;;2772707;51;8856;-68
2021/10/18 05:45:41;;;;;;;;;5.00;4.00;;;;;;;;2773355;51;8801;-67
2021/10/18 05:48:07;;;;;;;;;3.25;2.75;;;;;;;;2773004;51;8785;-67
2021/10/18 05:50:34;;;;;;;;;5.50;5.50;;;;;;;;2772919;51;8808;-67
2021/10/18 05:53:00;;;;;;;;;4.40;3.80;;;;;;;;2772984;51;8777;-67
2021/10/18 05:55:25;;;;;;;;;10.25;3.75;;;;;;;;2772903;51;8777;-67
2021/10/18 05:57:54;;;;;;;;;7.75;6.75;;;;;;;;2772751;51;8787;-68
2021/10/18 06:00:20;;;;;;;;;10.80;7.40;;;;;;;;2772295;51;8886;-66
2021/10/18 06:02:46;;;;;;;;;4.60;4.60;;;;;;;;2772843;51;8858;-67
2021/10/18 06:05:12;;;;;;;;;2.25;2.25;;;;;;;;2772693;51;8793;-67
2021/10/18 06:07:38;;;;;;;;;3.00;3.00;;;;;;;;2772717;51;10629;-66
2021/10/18 06:10:04;;;;;;;;;8.25;3.75;;;;;;;;2772701;51;8797;-67
2021/10/18 06:12:30;;;;;;;;;3.80;3.80;;;;;;;;2778290;51;11489;-67
2021/10/18 06:14:55;;;;;;;;;6.25;4.00;;;;;;;;2778813;51;8774;-66
2021/10/18 06:17:21;;;;;;;;;3.00;1.50;;;;;;;;2774596;51;8777;-67
2021/10/18 06:19:47;;;;;;;;;4.50;4.50;;;;;;;;2772643;51;8769;-69
2021/10/18 06:22:12;;;;;;;;;2.50;2.00;;;;;;;;2772630;51;8769;-67
2021/10/18 06:24:38;;;;;;;;;6.50;4.25;;;;;;;;2772860;51;8798;-68
2021/10/18 06:27:03;;;;;;;;;7.50;6.50;;;;;;;;2772662;51;8793;-66
2021/10/18 06:29:30;;;;;;;;;4.00;4.00;;;;;;;;2772696;51;8773;-67
2021/10/18 06:31:55;;;;;;;;;5.40;5.40;;;;;;;;2772755;51;8773;-67
2021/10/18 06:34:21;;;;;;;;;4.00;4.00;;;;;;;;2772616;51;8757;-67
2021/10/18 06:36:46;;;;;;;;;4.75;4.50;;;;;;;;2772552;51;8777;-66
2021/10/18 06:39:12;;;;;;;;;4.00;4.00;;;;;;;;2772482;51;8773;-66
2021/10/18 06:41:37;;;;;;;;;5.75;4.50;;;;;;;;2772586;51;8810;-66
2021/10/18 06:44:03;;;;;;;;;4.50;4.25;;;;;;;;2772473;51;8809;-67
2021/10/18 06:46:29;;;;;;;;;6.50;4.00;;;;;;;;2772733;51;8878;-67
2021/10/18 06:48:54;;;;;;;;;5.75;4.75;;;;;;;;2772638;51;11462;-66
2021/10/18 06:51:20;;;;;;;;;4.50;4.00;;;;;;;;2772646;51;9386;-67
2021/10/18 06:53:49;;;;;;;;;7.50;5.75;;;;;;;;2772872;51;8784;-67
2021/10/18 06:56:15;;;;;;;;;4.60;4.20;;;;;;;;2773023;51;8779;-67
2021/10/18 06:58:40;;;;;;;;;3.00;3.00;;;;;;;;2772553;51;8777;-67
2021/10/18 07:01:06;;;;;;;;;4.00;4.00;;;;;;;;2772664;51;8777;-67
2021/10/18 07:03:31;;;;;;;;;3.00;3.00;;;;;;;;2772483;51;8854;-66
2021/10/18 07:05:59;;;;;;;;;4.75;4.00;;;;;;;;2772537;51;8790;-68
2021/10/18 07:08:24;;;;;;;;;1.80;1.80;;;;;;;;2773001;51;8858;-67
2021/10/18 07:10:50;;;;;;;;;2.50;2.25;;;;;;;;2774068;51;8770;-67
2021/10/18 07:13:16;;;;;;;;;1.00;1.00;;;;;;;;2778282;51;11432;-66
2021/10/18 07:15:41;;;;;;;;;3.00;3.00;;;;;;;;2778677;51;8766;-66
2021/10/18 07:18:07;;;;;;;;;5.00;2.00;;;;;;;;2766399;51;9393;-66
2021/10/18 07:20:33;;;;;;;;;2.40;2.40;;;;;;;;2766291;51;8909;-67
2021/10/18 07:23:00;;;;;;;;;2.25;2.25;;;;;;;;2766503;51;8783;-66
2021/10/18 07:25:26;;;;;;;;;4.20;3.60;;;;;;;;2766943;51;8810;-66
2021/10/18 07:27:52;;;;;;;;;4.60;3.80;;;;;;;;2767407;51;8768;-66
2021/10/18 07:30:18;;;;;;;;;3.50;3.50;;;;;;;;2767551;51;8775;-67
2021/10/18 07:32:44;;;;;;;;;2.00;2.00;;;;;;;;2767742;51;8783;-67
2021/10/18 07:35:11;;;;;;;;;4.00;3.40;;;;;;;;2767708;51;8791;-67
2021/10/18 07:37:36;;;;;;;;;6.20;4.00;;;;;;;;2767949;51;8760;-66
2021/10/18 07:40:03;;;;;;;;;4.00;3.00;;;;;;;;2767477;51;8898;-66
2021/10/18 07:42:28;;;;;;;;;4.40;3.60;;;;;;;;2767177;51;11489;-65
2021/10/18 07:44:54;;;;;;;;;6.00;4.50;;;;;;;;2767377;51;8792;-67
2021/10/18 07:47:20;;;;;;;;;3.50;2.75;;;;;;;;2767269;51;8885;-66
2021/10/18 07:49:46;;;;;;;;;3.40;3.00;;;;;;;;2767367;51;8892;-67
2021/10/18 07:52:12;;;;;;;;;2.25;2.25;;;;;;;;2767503;51;8784;-66
2021/10/18 07:54:38;;;;;;;;;2.75;2.00;;;;;;;;2767726;51;11403;-66
2021/10/18 07:57:04;;;;;;;;;1.60;1.60;;;;;;;;2767454;51;9417;-67
2021/10/18 07:59:29;;;;;;;;;4.00;3.00;;;;;;;;2767207;51;8803;-66
2021/10/18 08:01:55;;;;;;;;;1.25;1.25;;;;;;;;2767235;51;8779;-67
2021/10/18 08:04:21;;;;;;;;;1.00;1.00;;;;;;;;2767389;51;8800;-66
2021/10/18 08:06:46;;;;;;;;;3.00;2.00;;;;;;;;2767349;51;9439;-66
2021/10/18 08:09:13;;;;;;;;;3.25;2.00;;;;;;;;2767135;51;8788;-66
2021/10/18 08:11:38;;;;;;;;;3.00;3.00;;;;;;;;2774417;51;8873;-67
2021/10/18 08:14:04;;;;;;;;;1.00;1.00;;;;;;;;2779505;51;8775;-66
2021/10/18 08:16:29;;;;;;;;;5.25;3.75;;;;;;;;2777609;51;8765;-66
2021/10/18 08:18:55;;;;;;;;;3.50;3.50;;;;;;;;2773197;51;8769;-66
2021/10/18 08:21:22;;;;;;;;;3.00;2.25;;;;;;;;2773455;51;8872;-67
2021/10/18 08:23:48;;;;;;;;;5.80;4.20;;;;;;;;2773492;51;8758;-67
2021/10/18 08:26:13;;;;;;;;;4.00;4.00;;;;;;;;2773385;51;8808;-67
2021/10/18 08:28:39;;;;;;;;;4.00;4.00;;;;;;;;2773200;51;8761;-67
2021/10/18 08:31:05;;;;;;;;;7.00;4.25;;;;;;;;2773836;51;8781;-65
2021/10/18 08:33:31;;;;;;;;;5.00;3.20;;;;;;;;2773150;51;8769;-65
2021/10/18 08:35:56;;;;;;;;;4.25;3.00;;;;;;;;2773153;51;8873;-65
2021/10/18 08:38:46;;;;;;;;;4.00;3.00;;;;;;;;2773367;51;8801;-67
2021/10/18 08:41:17;;;;;;;;;2.80;2.00;;;;;;;;2773476;51;8766;-67
2021/10/18 08:46:27;;;;;;;;;3.40;3.40;;;;;;;;2773153;51;9496;-67
2021/10/18 08:48:54;;;;;;;;;3.00;3.00;;;;;;;;2772928;51;8789;-66
2021/10/18 08:51:21;;;;;;;;;3.80;2.60;;;;;;;;2772941;51;8795;-67
2021/10/18 08:53:47;;;;;;;;;2.00;2.00;;;;;;;;2773108;51;8777;-67
2021/10/18 08:56:13;;;;;;;;;1.60;1.60;;;;;;;;2773295;51;8788;-66
2021/10/18 08:58:38;;;;;;;;;3.25;1.25;;;;;;;;2773408;51;8803;-67
2021/10/18 09:01:04;;;;;;;;;4.75;2.00;;;;;;;;2773056;51;8785;-65
2021/10/18 09:03:32;;;;;;;;;1.50;1.50;;;;;;;;2773419;51;8785;-65
2021/10/18 09:06:16;;;;;;;;;4.80;3.00;;;;;;;;2773098;51;8903;-65
2021/10/18 09:08:41;;;;;;;;;2.00;2.00;;;;;;;;2773287;51;8769;-66
2021/10/18 09:11:10;;;;;;;;;1.25;1.25;;;;;;;;2775667;51;8892;-65
2021/10/18 09:13:36;;;;;;;;;3.60;2.20;;;;;;;;2779279;51;8791;-66
2021/10/18 09:16:02;;;;;;;;;2.80;2.80;;;;;;;;2778344;51;9359;-64
2021/10/18 09:18:28;;;;;;;;;2.00;1.50;;;;;;;;2773095;51;8773;-68
2021/10/18 09:20:54;;;;;;;;;2.00;2.00;;;;;;;;2772877;51;11551;-66
2021/10/18 09:23:25;;;;;;;;;3.00;3.00;;;;;;;;2773010;51;8791;-65
2021/10/18 09:25:51;;;;;;;;;2.00;2.00;;;;;;;;2773273;51;8802;-65
2021/10/18 09:28:21;;;;;;;;;5.40;2.60;;;;;;;;2773094;51;8754;-66
2021/10/18 09:30:48;;;;;;;;;2.60;2.40;;;;;;;;2773197;51;8777;-65
2021/10/18 09:33:18;;;;;;;;;2.00;2.00;;;;;;;;2773294;51;8769;-67
2021/10/18 09:35:44;;;;;;;;;3.60;2.80;;;;;;;;2773458;51;8773;-66
2021/10/18 09:38:10;;;;;;;;;5.25;2.00;;;;;;;;2773385;51;8782;-65
2021/10/18 09:40:39;;;;;;;;;3.20;3.00;;;;;;;;2772943;51;9470;-66
2021/10/18 09:43:16;;;;;;;;;1.80;1.80;;;;;;;;2772839;51;8757;-66
2021/10/18 09:45:54;;;;;;;;;2.80;2.40;;;;;;;;2773280;51;8781;-65
2021/10/18 10:52:49;;;;;;;;;4.40;2.00;;;;;;;;2772750;51;8831;-66
2021/10/18 10:55:24;;;;;;;;;3.80;2.00;;;;;;;;2773086;51;8868;-65
2021/10/18 10:57:54;;;;;;;;;2.20;2.20;;;;;;;;2772903;51;8761;-64
2021/10/18 11:00:29;;;;;;;;;3.00;3.00;;;;;;;;2773704;51;8789;-65
2021/10/18 11:03:14;;;;;;;;;4.20;3.00;;;;;;;;2773829;51;8807;-65
2021/10/18 11:05:55;;;;;;;;;4.40;4.00;;;;;;;;2773101;51;8785;-65
2021/10/18 11:08:30;;;;;;;;;3.20;3.00;;;;;;;;2774257;51;8789;-66
2021/10/18 11:11:04;;;;;;;;;3.00;2.00;;;;;;;;2775793;51;8909;-65
2021/10/18 11:13:30;;;;;;;;;2.40;1.20;;;;;;;;2779538;51;8921;-67
2021/10/18 11:15:59;;;;;;;;;3.80;2.20;;;;;;;;2779111;51;8773;-67
2021/10/18 11:18:25;;;;;;;;;2.00;2.00;;;;;;;;2773516;51;8772;-67
2021/10/18 11:20:51;;;;;;;;;2.25;2.00;;;;;;;;2773523;51;8784;-64
2021/10/18 11:23:16;;;;;;;;;2.00;2.00;;;;;;;;2773932;51;8769;-68
2021/10/18 11:25:44;;;;;;;;;1.25;1.25;;;;;;;;2772998;51;8882;-66
2021/10/18 11:28:10;;;;;;;;;3.60;3.00;;;;;;;;2773720;51;8871;-68
2021/10/18 11:30:37;;;;;;;;;2.40;2.40;;;;;;;;2773561;51;8785;-66
2021/10/18 11:33:04;;;;;;;;;3.60;2.00;;;;;;;;2773523;51;8761;-70
2021/10/18 11:35:34;;;;;;;;;4.80;2.60;;;;;;;;2773622;51;8773;-67
2021/10/18 11:38:00;;;;;;;;;3.00;3.00;;;;;;;;2773744;51;8868;-66
